Time,TemperatureF,DewpointF,PressureIn,WindDirection,WindDirectionDegrees,WindSpeedMPH,WindSpeedGustMPH,Humidity,HourlyPrecipIn,Conditions,Clouds,dailyrainin,SoftwareType,DateUTC
2013-10-22 00:02:00,36.6,34.2,30.08,South,176,0.0,0.0,91,0.00,,,0.00,WUHU216DAVISVP2,2013-10-22 05:02:00,
2013-10-22 00:07:00,36.4,34.0,30.08,South,176,0.0,0.0,91,0.00,,,0.00,WUHU216DAVISVP2,2013-10-22 05:07:00,
2013-10-22 00:12:00,36.4,34.3,30.08,South,176,0.0,0.0,92,0.00,,,0.00,WUHU216DAVISVP2,2013-10-22 05:12:00,
2013-10-22 00:17:00,36.3,34.2,30.08,South,176,0.0,0.0,92,0.00,,,0.00,WUHU216DAVISVP2,2013-10-22 05:17:00,
2013-10-22 00:22:00,36.2,34.1,30.08,South,176,0.0,0.0,92,0.00,,,0.00,WUHU216DAVISVP2,2013-10-22 05:22:00,
2013-10-22 00:27:00,36.0,33.9,30.08,South,176,0.0,0.0,92,0.00,,,0.00,WUHU216DAVISVP2,2013-10-22 05:27:00,
2013-10-22 00:32:00,35.9,33.8,30.08,South,176,0.0,0.0,92,0.00,,,0.00,WUHU216DAVISVP2,2013-10-22 05:32:00,
2013-10-22 00:37:00,35.8,33.7,30.08,South,176,0.0,0.0,92,0.00,,,0.00,WUHU216DAVISVP2,2013-10-22 05:37:00,
2013-10-22 00:42:00,35.7,33.6,30.08,South,176,0.0,0.0,92,0.00,,,0.00,WUHU216DAVISVP2,2013-10-22 05:42:00,
2013-10-22 00:47:00,35.8,33.7,30.08,South,176,0.0,0.0,92,0.00,,,0.00,WUHU216DAVISVP2,2013-10-22 05:47:00,
2013-10-22 00:52:00,35.7,33.6,30.08,South,176,0.0,0.0,92,0.00,,,0.00,WUHU216DAVISVP2,2013-10-22 05:52:00,
2013-10-22 00:57:00,35.5,33.4,30.08,South,176,0.0,0.0,92,0.00,,,0.00,WUHU216DAVISVP2,2013-10-22 05:57:00,
2013-10-22 01:02:00,35.2,33.1,30.08,South,176,0.0,0.0,92,0.00,,,0.00,WUHU216DAVISVP2,2013-10-22 06:02:00,
2013-10-22 01:07:00,35.0,32.9,30.08,South,176,0.0,0.0,92,0.00,,,0.00,WUHU216DAVISVP2,2013-10-22 06:07:00,
2013-10-22 01:12:00,34.9,32.8,30.08,South,176,0.0,0.0,92,0.00,,,0.00,WUHU216DAVISVP2,2013-10-22 06:12:00,
2013-10-22 01:17:00,34.8,32.7,30.08,South,176,0.0,0.0,92,0.00,,,0.00,WUHU216DAVISVP2,2013-10-22 06:17:00,
2013-10-22 01:22:00,34.7,32.8,30.07,South,176,0.0,0.0,93,0.00,,,0.00,WUHU216DAVISVP2,2013-10-22 06:22:00,
2013-10-22 01:27:00,34.7,32.8,30.07,South,176,0.0,0.0,93,0.00,,,0.00,WUHU216DAVISVP2,2013-10-22 06:27:00,
2013-10-22 01:32:00,34.7,32.9,30.07,South,176,0.0,0.0,93,0.00,,,0.00,WUHU216DAVISVP2,2013-10-22 06:32:00,
2013-10-22 01:37:00,34.7,32.9,30.07,South,176,0.0,0.0,93,0.00,,,0.00,WUHU216DAVISVP2,2013-10-22 06:37:00,
2013-10-22 01:42:00,34.8,33.0,30.07,South,176,0.0,0.0,93,0.00,,,0.00,WUHU216DAVISVP2,2013-10-22 06:42:00,
2013-10-22 01:47:00,34.6,32.8,30.08,South,176,0.0,0.0,93,0.00,,,0.00,WUHU216DAVISVP2,2013-10-22 06:47:00,
2013-10-22 01:52:00,34.6,32.8,30.08,South,176,0.0,0.0,93,0.00,,,0.00,WUHU216DAVISVP2,2013-10-22 06:52:00,
2013-10-22 01:57:00,34.6,32.8,30.08,South,176,0.0,0.0,93,0.00,,,0.00,WUHU216DAVISVP2,2013-10-22 06:57:00,
2013-10-22 02:02:00,34.6,32.7,30.07,South,176,0.0,0.0,93,0.00,,,0.00,WUHU216DAVISVP2,2013-10-22 07:02:00,
2013-10-22 02:07:00,34.7,33.1,30.08,South,176,0.0,0.0,94,0.00,,,0.00,WUHU216DAVISVP2,2013-10-22 07:07:00,
2013-10-22 02:12:00,34.8,33.2,30.08,South,176,0.0,0.0,94,0.00,,,0.00,WUHU216DAVISVP2,2013-10-22 07:12:00,
2013-10-22 02:17:00,34.9,33.3,30.08,South,176,0.0,0.0,94,0.00,,,0.00,WUHU216DAVISVP2,2013-10-22 07:17:00,
2013-10-22 02:22:00,34.9,33.3,30.07,South,176,0.0,0.0,94,0.00,,,0.00,WUHU216DAVISVP2,2013-10-22 07:22:00,
2013-10-22 02:27:00,34.8,32.9,30.07,South,176,0.0,0.0,93,0.00,,,0.00,WUHU216DAVISVP2,2013-10-22 07:27:00,
2013-10-22 02:32:00,34.6,32.8,30.07,South,176,0.0,0.0,93,0.00,,,0.00,WUHU216DAVISVP2,2013-10-22 07:32:00,
2013-10-22 02:37:00,34.4,32.6,30.07,South,176,0.0,0.0,93,0.00,,,0.00,WUHU216DAVISVP2,2013-10-22 07:37:00,
2013-10-22 02:42:00,34.3,32.5,30.07,South,176,0.0,0.0,93,0.00,,,0.00,WUHU216DAVISVP2,2013-10-22 07:42:00,
2013-10-22 02:47:00,34.2,32.3,30.07,South,176,0.0,0.0,93,0.00,,,0.00,WUHU216DAVISVP2,2013-10-22 07:47:00,
2013-10-22 02:52:00,34.1,32.2,30.07,South,176,0.0,0.0,93,0.00,,,0.00,WUHU216DAVISVP2,2013-10-22 07:52:00,
2013-10-22 02:57:00,34.0,32.1,30.06,South,176,0.0,0.0,93,0.00,,,0.00,WUHU216DAVISVP2,2013-10-22 07:57:00,
2013-10-22 03:02:00,34.0,32.1,30.06,South,176,0.0,0.0,93,0.00,,,0.00,WUHU216DAVISVP2,2013-10-22 08:02:00,
2013-10-22 03:07:00,33.9,32.1,30.06,South,176,0.0,0.0,93,0.00,,,0.00,WUHU216DAVISVP2,2013-10-22 08:07:00,
2013-10-22 03:12:00,33.9,32.1,30.06,South,176,0.0,0.0,93,0.00,,,0.00,WUHU216DAVISVP2,2013-10-22 08:12:00,
2013-10-22 03:17:00,33.9,32.0,30.06,South,176,0.0,0.0,93,0.00,,,0.00,WUHU216DAVISVP2,2013-10-22 08:17:00,
2013-10-22 03:22:00,33.9,32.0,30.06,South,176,0.0,0.0,93,0.00,,,0.00,WUHU216DAVISVP2,2013-10-22 08:22:00,
2013-10-22 03:27:00,33.8,31.9,30.06,South,176,0.0,0.0,93,0.00,,,0.00,WUHU216DAVISVP2,2013-10-22 08:27:00,
2013-10-22 03:32:00,33.6,31.8,30.06,South,176,0.0,0.0,93,0.00,,,0.00,WUHU216DAVISVP2,2013-10-22 08:32:00,
2013-10-22 03:37:00,33.5,31.7,30.05,South,176,0.0,0.0,93,0.00,,,0.00,WUHU216DAVISVP2,2013-10-22 08:37:00,
2013-10-22 03:42:00,33.5,31.6,30.05,South,176,0.0,0.0,93,0.00,,,0.00,WUHU216DAVISVP2,2013-10-22 08:42:00,
2013-10-22 03:47:00,33.6,32.0,30.05,South,176,0.0,0.0,94,0.00,,,0.00,WUHU216DAVISVP2,2013-10-22 08:47:00,
2013-10-22 03:52:00,33.6,32.0,30.05,South,176,0.0,0.0,94,0.00,,,0.00,WUHU216DAVISVP2,2013-10-22 08:52:00,
2013-10-22 03:57:00,33.7,32.1,30.05,South,176,0.0,0.0,94,0.00,,,0.00,WUHU216DAVISVP2,2013-10-22 08:57:00,
2013-10-22 04:02:00,33.8,32.3,30.05,South,176,0.0,0.0,94,0.00,,,0.00,WUHU216DAVISVP2,2013-10-22 09:02:00,
2013-10-22 04:07:00,34.0,32.4,30.04,South,176,0.0,0.0,94,0.00,,,0.00,WUHU216DAVISVP2,2013-10-22 09:07:00,
2013-10-22 04:12:00,34.1,32.5,30.05,South,176,0.0,0.0,94,0.00,,,0.00,WUHU216DAVISVP2,2013-10-22 09:12:00,
2013-10-22 04:17:00,34.2,32.6,30.05,South,176,0.0,0.0,94,0.00,,,0.00,WUHU216DAVISVP2,2013-10-22 09:17:00,
2013-10-22 04:22:00,34.3,32.8,30.05,South,176,0.0,0.0,94,0.00,,,0.00,WUHU216DAVISVP2,2013-10-22 09:22:00,
2013-10-22 04:27:00,34.4,32.8,30.05,South,176,0.0,0.0,94,0.00,,,0.00,WUHU216DAVISVP2,2013-10-22 09:27:00,
2013-10-22 04:32:00,34.5,32.9,30.04,South,176,0.0,0.0,94,0.00,,,0.00,WUHU216DAVISVP2,2013-10-22 09:32:00,
2013-10-22 04:37:00,34.4,32.8,30.04,South,176,0.0,0.0,94,0.00,,,0.00,WUHU216DAVISVP2,2013-10-22 09:37:00,
2013-10-22 04:42:00,34.5,32.9,30.05,South,176,0.0,0.0,94,0.00,,,0.00,WUHU216DAVISVP2,2013-10-22 09:42:00,
2013-10-22 04:47:00,34.6,33.0,30.04,South,176,0.0,0.0,94,0.00,,,0.00,WUHU216DAVISVP2,2013-10-22 09:47:00,
2013-10-22 04:52:00,34.7,33.1,30.04,South,176,0.0,1.0,94,0.00,,,0.00,WUHU216DAVISVP2,2013-10-22 09:52:00,
2013-10-22 04:57:00,34.7,33.1,30.05,South,176,0.0,1.0,94,0.00,,,0.00,WUHU216DAVISVP2,2013-10-22 09:57:00,
2013-10-22 05:02:00,34.8,33.2,30.05,South,176,0.0,1.0,94,0.00,,,0.00,WUHU216DAVISVP2,2013-10-22 10:02:00,
2013-10-22 05:07:00,34.9,33.3,30.05,South,176,0.0,1.0,94,0.00,,,0.00,WUHU216DAVISVP2,2013-10-22 10:07:00,
2013-10-22 05:12:00,34.9,33.3,30.05,South,176,0.0,2.0,94,0.00,,,0.00,WUHU216DAVISVP2,2013-10-22 10:12:00,
2013-10-22 05:17:00,35.0,33.4,30.05,South,176,2.0,3.0,94,0.00,,,0.00,WUHU216DAVISVP2,2013-10-22 10:17:00,
2013-10-22 05:22:00,35.1,33.5,30.05,South,176,0.0,3.0,94,0.00,,,0.00,WUHU216DAVISVP2,2013-10-22 10:22:00,
2013-10-22 05:27:00,35.2,33.6,30.04,South,176,1.0,3.0,94,0.00,,,0.00,WUHU216DAVISVP2,2013-10-22 10:27:00,
2013-10-22 05:32:00,35.5,33.9,30.05,South,176,0.0,4.0,94,0.00,,,0.00,WUHU216DAVISVP2,2013-10-22 10:32:00,
2013-10-22 05:37:00,35.5,34.2,30.05,South,176,0.0,4.0,95,0.00,,,0.00,WUHU216DAVISVP2,2013-10-22 10:37:00,
2013-10-22 05:42:00,35.6,34.3,30.05,South,176,0.0,4.0,95,0.00,,,0.00,WUHU216DAVISVP2,2013-10-22 10:42:00,
2013-10-22 05:47:00,35.6,34.0,30.05,South,176,0.0,4.0,94,0.00,,,0.00,WUHU216DAVISVP2,2013-10-22 10:47:00,
2013-10-22 05:52:00,35.7,34.1,30.05,South,176,0.0,4.0,94,0.00,,,0.00,WUHU216DAVISVP2,2013-10-22 10:52:00,
2013-10-22 05:57:00,35.8,34.2,30.05,South,176,0.0,4.0,94,0.00,,,0.00,WUHU216DAVISVP2,2013-10-22 10:57:00,
2013-10-22 06:02:00,35.8,34.5,30.05,South,176,0.0,2.0,95,0.00,,,0.00,WUHU216DAVISVP2,2013-10-22 11:02:00,
2013-10-22 06:07:00,35.9,34.3,30.05,South,176,0.0,3.0,94,0.00,,,0.00,WUHU216DAVISVP2,2013-10-22 11:07:00,
2013-10-22 06:12:00,35.9,34.3,30.05,South,176,0.0,3.0,94,0.00,,,0.00,WUHU216DAVISVP2,2013-10-22 11:12:00,
2013-10-22 06:17:00,36.1,34.7,30.04,South,176,0.0,3.0,95,0.00,,,0.00,WUHU216DAVISVP2,2013-10-22 11:17:00,
2013-10-22 06:22:00,36.1,34.5,30.04,South,176,2.0,4.0,94,0.00,,,0.00,WUHU216DAVISVP2,2013-10-22 11:22:00,
2013-10-22 06:27:00,36.2,34.6,30.04,South,176,0.0,4.0,94,0.00,,,0.00,WUHU216DAVISVP2,2013-10-22 11:27:00,
2013-10-22 06:32:00,36.4,34.7,30.04,South,176,3.0,4.0,94,0.00,,,0.00,WUHU216DAVISVP2,2013-10-22 11:32:00,
2013-10-22 06:37:00,36.5,35.2,30.04,South,176,0.0,5.0,95,0.00,,,0.00,WUHU216DAVISVP2,2013-10-22 11:37:00,
2013-10-22 06:42:00,36.6,35.3,30.04,South,176,1.0,5.0,95,0.00,,,0.00,WUHU216DAVISVP2,2013-10-22 11:42:00,
2013-10-22 06:47:00,36.8,35.4,30.03,South,176,0.0,5.0,95,0.00,,,0.00,WUHU216DAVISVP2,2013-10-22 11:47:00,
2013-10-22 06:52:00,36.8,35.5,30.03,South,176,0.0,5.0,95,0.00,,,0.00,WUHU216DAVISVP2,2013-10-22 11:52:00,
2013-10-22 06:57:00,36.8,35.5,30.03,South,176,0.0,5.0,95,0.00,,,0.00,WUHU216DAVISVP2,2013-10-22 11:57:00,
2013-10-22 07:02:00,37.0,35.4,30.03,South,176,0.0,5.0,94,0.00,,,0.00,WUHU216DAVISVP2,2013-10-22 12:02:00,
2013-10-22 07:07:00,37.0,35.4,30.03,South,176,0.0,4.0,94,0.00,,,0.00,WUHU216DAVISVP2,2013-10-22 12:07:00,
2013-10-22 07:12:00,37.0,35.4,30.03,South,176,0.0,4.0,94,0.00,,,0.00,WUHU216DAVISVP2,2013-10-22 12:12:00,
2013-10-22 07:17:00,37.2,35.6,30.03,South,176,0.0,5.0,94,0.00,,,0.00,WUHU216DAVISVP2,2013-10-22 12:17:00,
2013-10-22 07:22:00,37.3,35.7,30.03,South,176,0.0,5.0,94,0.00,,,0.00,WUHU216DAVISVP2,2013-10-22 12:22:00,
2013-10-22 07:27:00,37.5,36.1,30.03,South,176,0.0,5.0,95,0.00,,,0.00,WUHU216DAVISVP2,2013-10-22 12:27:00,
2013-10-22 07:32:00,37.6,36.3,30.03,South,176,0.0,5.0,95,0.00,,,0.00,WUHU216DAVISVP2,2013-10-22 12:32:00,
2013-10-22 07:37:00,37.8,36.5,30.03,NNE,31,0.0,6.0,95,0.00,,,0.00,WUHU216DAVISVP2,2013-10-22 12:37:00,
2013-10-22 07:42:00,38.3,36.9,30.03,NNE,15,3.0,6.0,95,0.00,,,0.00,WUHU216DAVISVP2,2013-10-22 12:42:00,
2013-10-22 07:47:00,38.7,37.4,30.03,NNE,15,3.0,6.0,95,0.00,,,0.00,WUHU216DAVISVP2,2013-10-22 12:47:00,
2013-10-22 07:52:00,39.0,37.7,30.03,NNE,15,0.0,6.0,95,0.00,,,0.00,WUHU216DAVISVP2,2013-10-22 12:52:00,
2013-10-22 07:57:00,39.3,37.7,30.03,NNE,15,0.0,5.0,94,0.00,,,0.00,WUHU216DAVISVP2,2013-10-22 12:57:00,
2013-10-22 08:02:00,39.3,37.7,30.03,NNE,15,0.0,5.0,94,0.00,,,0.00,WUHU216DAVISVP2,2013-10-22 13:02:00,
2013-10-22 08:07:00,39.2,37.5,30.04,NNE,15,2.0,5.0,94,0.00,,,0.00,WUHU216DAVISVP2,2013-10-22 13:07:00,
2013-10-22 08:12:00,39.1,37.5,30.03,NNE,15,0.0,4.0,94,0.00,,,0.00,WUHU216DAVISVP2,2013-10-22 13:12:00,
2013-10-22 08:17:00,39.1,37.5,30.03,NNE,15,0.0,5.0,94,0.00,,,0.00,WUHU216DAVISVP2,2013-10-22 13:17:00,
2013-10-22 08:22:00,39.2,37.6,30.03,NNE,15,0.0,5.0,94,0.00,,,0.00,WUHU216DAVISVP2,2013-10-22 13:22:00,
2013-10-22 08:27:00,39.2,37.6,30.03,NNE,15,0.0,5.0,94,0.00,,,0.00,WUHU216DAVISVP2,2013-10-22 13:27:00,
2013-10-22 08:32:00,39.3,37.7,30.03,NNE,15,0.0,5.0,94,0.00,,,0.00,WUHU216DAVISVP2,2013-10-22 13:32:00,
2013-10-22 08:37:00,39.3,37.7,30.03,NNE,15,0.0,4.0,94,0.00,,,0.00,WUHU216DAVISVP2,2013-10-22 13:37:00,
2013-10-22 08:42:00,39.4,37.5,30.03,NNE,15,1.0,5.0,93,0.00,,,0.00,WUHU216DAVISVP2,2013-10-22 13:42:00,
2013-10-22 08:47:00,39.6,37.7,30.03,NNE,20,0.0,5.0,93,0.00,,,0.00,WUHU216DAVISVP2,2013-10-22 13:47:00,
2013-10-22 08:52:00,39.8,37.6,30.02,NNE,20,0.0,5.0,92,0.00,,,0.00,WUHU216DAVISVP2,2013-10-22 13:52:00,
2013-10-22 08:57:00,39.8,37.6,30.02,NNE,15,4.0,6.0,92,0.00,,,0.00,WUHU216DAVISVP2,2013-10-22 13:57:00,
2013-10-22 09:02:00,40.1,37.9,30.02,NNE,15,0.0,6.0,92,0.00,,,0.00,WUHU216DAVISVP2,2013-10-22 14:02:00,
2013-10-22 09:07:00,40.3,37.9,30.02,NNE,25,5.0,7.0,91,0.00,,,0.00,WUHU216DAVISVP2,2013-10-22 14:07:00,
2013-10-22 09:12:00,40.6,37.8,30.02,NNE,15,1.0,7.0,90,0.00,,,0.00,WUHU216DAVISVP2,2013-10-22 14:12:00,
2013-10-22 09:17:00,40.7,38.0,30.01,North,358,0.0,7.0,90,0.00,,,0.00,WUHU216DAVISVP2,2013-10-22 14:17:00,
2013-10-22 09:22:00,40.8,37.8,30.01,NNE,20,4.0,7.0,89,0.00,,,0.00,WUHU216DAVISVP2,2013-10-22 14:22:00,
2013-10-22 09:27:00,40.9,37.9,30.01,North,357,0.0,7.0,89,0.00,,,0.00,WUHU216DAVISVP2,2013-10-22 14:27:00,
2013-10-22 09:32:00,41.2,37.9,30.01,North,1,1.0,6.0,88,0.00,,,0.00,WUHU216DAVISVP2,2013-10-22 14:32:00,
2013-10-22 09:37:00,41.3,37.7,30.01,North,11,0.0,7.0,87,0.00,,,0.00,WUHU216DAVISVP2,2013-10-22 14:37:00,
2013-10-22 09:42:00,41.5,37.6,30.01,NNE,29,4.0,8.0,86,0.00,,,0.00,WUHU216DAVISVP2,2013-10-22 14:42:00,
2013-10-22 09:47:00,41.7,37.8,30.01,NNE,33,0.0,8.0,86,0.00,,,0.00,WUHU216DAVISVP2,2013-10-22 14:47:00,
2013-10-22 09:52:00,42.0,37.8,30.01,ENE,57,0.0,8.0,85,0.00,,,0.00,WUHU216DAVISVP2,2013-10-22 14:52:00,
2013-10-22 09:57:00,42.3,37.8,30.01,NE,46,1.0,8.0,84,0.00,,,0.00,WUHU216DAVISVP2,2013-10-22 14:57:00,
2013-10-22 10:02:00,42.5,37.7,30.01,NE,56,1.0,7.0,83,0.00,,,0.00,WUHU216DAVISVP2,2013-10-22 15:02:00,
2013-10-22 10:07:00,42.8,38.0,30.01,NE,37,1.0,7.0,83,0.00,,,0.00,WUHU216DAVISVP2,2013-10-22 15:07:00,
2013-10-22 10:12:00,42.9,37.4,30.01,ENE,57,1.0,7.0,81,0.00,,,0.00,WUHU216DAVISVP2,2013-10-22 15:12:00,
2013-10-22 10:17:00,42.9,37.5,30.00,NE,56,2.0,7.0,81,0.00,,,0.00,WUHU216DAVISVP2,2013-10-22 15:17:00,
2013-10-22 10:22:00,43.0,37.6,30.00,NE,47,0.0,6.0,81,0.00,,,0.00,WUHU216DAVISVP2,2013-10-22 15:22:00,
2013-10-22 10:27:00,43.4,37.7,30.00,North,6,1.0,8.0,80,0.00,,,0.00,WUHU216DAVISVP2,2013-10-22 15:27:00,
2013-10-22 10:32:00,43.8,38.1,30.00,ENE,58,2.0,8.0,80,0.00,,,0.00,WUHU216DAVISVP2,2013-10-22 15:32:00,
2013-10-22 10:37:00,44.3,37.9,30.00,ENE,66,3.0,9.0,78,0.00,,,0.00,WUHU216DAVISVP2,2013-10-22 15:37:00,
2013-10-22 10:42:00,44.5,37.8,29.99,NE,50,2.0,9.0,77,0.00,,,0.00,WUHU216DAVISVP2,2013-10-22 15:42:00,
2013-10-22 10:47:00,44.8,37.7,29.99,ENE,69,2.0,10.0,76,0.00,,,0.00,WUHU216DAVISVP2,2013-10-22 15:47:00,
2013-10-22 10:52:00,45.4,38.3,29.99,ENE,70,1.0,10.0,76,0.00,,,0.00,WUHU216DAVISVP2,2013-10-22 15:52:00,
2013-10-22 10:57:00,46.3,38.9,29.99,NE,56,1.0,11.0,75,0.00,,,0.00,WUHU216DAVISVP2,2013-10-22 15:57:00,
2013-10-22 11:02:00,46.9,38.8,29.99,NE,44,1.0,11.0,73,0.00,,,0.00,WUHU216DAVISVP2,2013-10-22 16:02:00,
2013-10-22 11:07:00,47.5,39.0,29.99,NE,52,2.0,11.0,72,0.00,,,0.00,WUHU216DAVISVP2,2013-10-22 16:07:00,
2013-10-22 11:12:00,48.1,39.3,29.98,ENE,61,7.0,13.0,71,0.00,,,0.00,WUHU216DAVISVP2,2013-10-22 16:12:00,
2013-10-22 11:17:00,48.9,39.7,29.98,ENE,60,9.0,16.0,70,0.00,,,0.00,WUHU216DAVISVP2,2013-10-22 16:17:00,
2013-10-22 11:22:00,50.3,40.2,29.98,NE,41,3.0,16.0,68,0.00,,,0.00,WUHU216DAVISVP2,2013-10-22 16:22:00,
2013-10-22 11:27:00,51.2,39.5,29.97,ENE,74,4.0,16.0,64,0.00,,,0.00,WUHU216DAVISVP2,2013-10-22 16:27:00,
2013-10-22 11:32:00,51.8,39.7,29.97,NNE,32,4.0,16.0,63,0.00,,,0.00,WUHU216DAVISVP2,2013-10-22 16:32:00,
2013-10-22 11:37:00,52.5,39.9,29.97,ESE,104,9.0,16.0,62,0.00,,,0.00,WUHU216DAVISVP2,2013-10-22 16:37:00,
2013-10-22 11:42:00,52.7,37.5,29.97,ENE,73,7.0,21.0,56,0.00,,,0.00,WUHU216DAVISVP2,2013-10-22 16:42:00,
2013-10-22 11:47:00,52.7,37.5,29.97,NE,50,17.0,22.0,56,0.00,,,0.00,WUHU216DAVISVP2,2013-10-22 16:47:00,
2013-10-22 11:52:00,52.8,37.6,29.97,ENE,74,7.0,22.0,56,0.00,,,0.00,WUHU216DAVISVP2,2013-10-22 16:52:00,
2013-10-22 11:57:00,52.7,37.5,29.97,East,87,13.0,21.0,56,0.00,,,0.00,WUHU216DAVISVP2,2013-10-22 16:57:00,
2013-10-22 12:02:00,52.9,38.6,29.96,ENE,64,8.0,20.0,58,0.00,,,0.00,WUHU216DAVISVP2,2013-10-22 17:02:00,
2013-10-22 12:07:00,53.1,38.8,29.96,East,85,10.0,20.0,58,0.00,,,0.00,WUHU216DAVISVP2,2013-10-22 17:07:00,
2013-10-22 12:12:00,53.2,38.4,29.96,ESE,102,14.0,20.0,57,0.00,,,0.00,WUHU216DAVISVP2,2013-10-22 17:12:00,
2013-10-22 12:17:00,53.1,38.8,29.96,ENE,69,5.0,19.0,58,0.00,,,0.00,WUHU216DAVISVP2,2013-10-22 17:17:00,
2013-10-22 12:22:00,53.5,37.8,29.96,East,88,10.0,18.0,55,0.00,,,0.00,WUHU216DAVISVP2,2013-10-22 17:22:00,
2013-10-22 12:27:00,53.4,39.1,29.96,ENE,71,11.0,18.0,58,0.00,,,0.00,WUHU216DAVISVP2,2013-10-22 17:27:00,
2013-10-22 12:32:00,53.4,39.0,29.96,ENE,59,6.0,19.0,58,0.00,,,0.00,WUHU216DAVISVP2,2013-10-22 17:32:00,
2013-10-22 12:37:00,53.2,38.5,29.95,East,84,12.0,19.0,57,0.00,,,0.00,WUHU216DAVISVP2,2013-10-22 17:37:00,
2013-10-22 12:42:00,53.2,39.4,29.95,East,85,14.0,19.0,59,0.00,,,0.00,WUHU216DAVISVP2,2013-10-22 17:42:00,
2013-10-22 12:47:00,53.6,38.4,29.95,ESE,111,9.0,17.0,56,0.00,,,0.00,WUHU216DAVISVP2,2013-10-22 17:47:00,
2013-10-22 12:52:00,53.8,39.5,29.95,East,82,8.0,17.0,58,0.00,,,0.00,WUHU216DAVISVP2,2013-10-22 17:52:00,
2013-10-22 12:57:00,54.3,40.4,29.95,East,87,11.0,15.0,59,0.00,,,0.00,WUHU216DAVISVP2,2013-10-22 17:57:00,
2013-10-22 13:02:00,54.5,40.1,29.95,East,87,7.0,13.0,58,0.00,,,0.00,WUHU216DAVISVP2,2013-10-22 18:02:00,
2013-10-22 13:07:00,54.5,39.2,29.94,ENE,66,5.0,15.0,56,0.00,,,0.00,WUHU216DAVISVP2,2013-10-22 18:07:00,
2013-10-22 13:12:00,54.1,39.7,29.94,East,91,13.0,17.0,58,0.00,,,0.00,WUHU216DAVISVP2,2013-10-22 18:12:00,
2013-10-22 13:17:00,54.1,39.8,29.94,ESE,114,11.0,17.0,58,0.00,,,0.00,WUHU216DAVISVP2,2013-10-22 18:17:00,
2013-10-22 13:22:00,54.4,40.1,29.93,ESE,103,6.0,17.0,58,0.00,,,0.00,WUHU216DAVISVP2,2013-10-22 18:22:00,
2013-10-22 13:27:00,54.4,40.0,29.93,East,99,5.0,17.0,58,0.00,,,0.00,WUHU216DAVISVP2,2013-10-22 18:27:00,
2013-10-22 13:32:00,54.5,39.6,29.93,East,100,8.0,17.0,57,0.00,,,0.00,WUHU216DAVISVP2,2013-10-22 18:32:00,
2013-10-22 13:37:00,55.0,40.6,29.93,ESE,107,6.0,17.0,58,0.00,,,0.00,WUHU216DAVISVP2,2013-10-22 18:37:00,
2013-10-22 13:42:00,55.5,41.5,29.93,ESE,108,15.0,17.0,59,0.00,,,0.00,WUHU216DAVISVP2,2013-10-22 18:42:00,
2013-10-22 13:47:00,55.7,40.8,29.92,SE,127,7.0,17.0,57,0.00,,,0.00,WUHU216DAVISVP2,2013-10-22 18:47:00,
2013-10-22 13:52:00,55.7,40.3,29.92,ESE,108,7.0,18.0,56,0.00,,,0.00,WUHU216DAVISVP2,2013-10-22 18:52:00,
2013-10-22 13:57:00,56.0,41.5,29.92,ESE,104,11.0,18.0,58,0.00,,,0.00,WUHU216DAVISVP2,2013-10-22 18:57:00,
2013-10-22 14:02:00,56.2,41.3,29.92,ESE,102,13.0,18.0,57,0.00,,,0.00,WUHU216DAVISVP2,2013-10-22 19:02:00,
2013-10-22 14:07:00,56.2,41.2,29.92,ESE,102,7.0,18.0,57,0.00,,,0.00,WUHU216DAVISVP2,2013-10-22 19:07:00,
2013-10-22 14:12:00,56.4,41.0,29.92,ESE,116,7.0,17.0,56,0.00,,,0.00,WUHU216DAVISVP2,2013-10-22 19:12:00,
2013-10-22 14:17:00,56.8,41.8,29.92,East,101,13.0,17.0,57,0.00,,,0.00,WUHU216DAVISVP2,2013-10-22 19:17:00,
2013-10-22 14:22:00,56.9,40.9,29.91,ESE,109,7.0,18.0,55,0.00,,,0.00,WUHU216DAVISVP2,2013-10-22 19:22:00,
2013-10-22 14:27:00,56.9,41.5,29.91,East,101,6.0,18.0,56,0.00,,,0.00,WUHU216DAVISVP2,2013-10-22 19:27:00,
2013-10-22 14:32:00,57.0,41.5,29.90,ESE,117,8.0,19.0,56,0.00,,,0.00,WUHU216DAVISVP2,2013-10-22 19:32:00,
2013-10-22 14:37:00,57.4,41.4,29.91,SE,125,7.0,19.0,55,0.00,,,0.00,WUHU216DAVISVP2,2013-10-22 19:37:00,
2013-10-22 14:42:00,57.5,42.0,29.91,ESE,113,8.0,19.0,56,0.00,,,0.00,WUHU216DAVISVP2,2013-10-22 19:42:00,
2013-10-22 14:47:00,57.6,41.6,29.91,ESE,107,11.0,19.0,55,0.00,,,0.00,WUHU216DAVISVP2,2013-10-22 19:47:00,
2013-10-22 14:52:00,57.9,41.9,29.91,East,98,13.0,18.0,55,0.00,,,0.00,WUHU216DAVISVP2,2013-10-22 19:52:00,
2013-10-22 14:57:00,57.7,41.7,29.91,ESE,107,10.0,18.0,55,0.00,,,0.00,WUHU216DAVISVP2,2013-10-22 19:57:00,
2013-10-22 15:03:00,57.9,41.9,29.91,East,100,13.0,21.0,55,0.00,,,0.00,WUHU216DAVISVP2,2013-10-22 20:03:00,
2013-10-22 15:07:00,57.4,41.9,29.91,East,87,5.0,22.0,56,0.00,,,0.00,WUHU216DAVISVP2,2013-10-22 20:07:00,
2013-10-22 15:12:00,57.3,41.8,29.91,SSE,149,13.0,22.0,56,0.00,,,0.00,WUHU216DAVISVP2,2013-10-22 20:12:00,
2013-10-22 15:17:00,57.5,42.5,29.91,SE,138,12.0,22.0,57,0.00,,,0.00,WUHU216DAVISVP2,2013-10-22 20:17:00,
2013-10-22 15:23:00,57.9,41.9,29.91,ESE,121,11.0,22.0,55,0.00,,,0.00,WUHU216DAVISVP2,2013-10-22 20:23:00,
2013-10-22 15:28:00,58.2,42.2,29.91,ESE,121,8.0,16.0,55,0.00,,,0.00,WUHU216DAVISVP2,2013-10-22 20:28:00,
2013-10-22 15:33:00,58.7,42.7,29.91,SE,135,7.0,16.0,55,0.00,,,0.00,WUHU216DAVISVP2,2013-10-22 20:33:00,
2013-10-22 15:38:00,59.0,42.0,29.91,ESE,114,11.0,17.0,53,0.00,,,0.00,WUHU216DAVISVP2,2013-10-22 20:38:00,
2013-10-22 15:43:00,58.8,42.7,29.92,ESE,116,6.0,19.0,55,0.00,,,0.00,WUHU216DAVISVP2,2013-10-22 20:43:00,
2013-10-22 15:48:00,58.9,43.3,29.92,ESE,123,9.0,19.0,56,0.00,,,0.00,WUHU216DAVISVP2,2013-10-22 20:48:00,
2013-10-22 15:53:00,59.4,42.8,29.91,ESE,122,12.0,19.0,54,0.00,,,0.00,WUHU216DAVISVP2,2013-10-22 20:53:00,
2013-10-22 15:58:00,59.6,43.0,29.92,East,94,5.0,18.0,54,0.00,,,0.00,WUHU216DAVISVP2,2013-10-22 20:58:00,
2013-10-22 16:03:00,60.1,44.5,29.92,ESE,110,2.0,18.0,56,0.00,,,0.00,WUHU216DAVISVP2,2013-10-22 21:03:00,
2013-10-22 16:08:00,60.7,44.5,29.92,ESE,121,15.0,18.0,55,0.00,,,0.00,WUHU216DAVISVP2,2013-10-22 21:08:00,
2013-10-22 16:13:00,60.5,43.3,29.91,ESE,119,13.0,21.0,53,0.00,,,0.00,WUHU216DAVISVP2,2013-10-22 21:13:00,
2013-10-22 16:18:00,60.6,44.5,29.91,SE,125,7.0,21.0,55,0.00,,,0.00,WUHU216DAVISVP2,2013-10-22 21:18:00,
2013-10-22 16:23:00,61.1,44.4,29.91,ENE,78,13.0,21.0,54,0.00,,,0.00,WUHU216DAVISVP2,2013-10-22 21:23:00,
2013-10-22 16:28:00,61.3,44.1,29.91,ESE,108,11.0,21.0,53,0.00,,,0.00,WUHU216DAVISVP2,2013-10-22 21:28:00,
2013-10-22 16:33:00,61.6,43.8,29.91,ESE,123,10.0,19.0,52,0.00,,,0.00,WUHU216DAVISVP2,2013-10-22 21:33:00,
2013-10-22 16:38:00,61.6,43.3,29.91,ESE,123,11.0,19.0,51,0.00,,,0.00,WUHU216DAVISVP2,2013-10-22 21:38:00,
2013-10-22 16:43:00,61.7,44.0,29.91,SE,133,9.0,19.0,52,0.00,,,0.00,WUHU216DAVISVP2,2013-10-22 21:43:00,
2013-10-22 16:48:00,62.1,43.2,29.91,ESE,108,7.0,19.0,50,0.00,,,0.00,WUHU216DAVISVP2,2013-10-22 21:48:00,
2013-10-22 16:53:00,62.5,44.2,29.91,SE,135,11.0,18.0,51,0.00,,,0.00,WUHU216DAVISVP2,2013-10-22 21:53:00,
2013-10-22 16:58:00,62.8,42.8,29.91,East,86,15.0,18.0,48,0.00,,,0.00,WUHU216DAVISVP2,2013-10-22 21:58:00,
2013-10-22 17:03:00,63.0,41.9,29.91,ESE,113,14.0,24.0,46,0.00,,,0.00,WUHU216DAVISVP2,2013-10-22 22:03:00,
2013-10-22 17:08:00,63.0,41.2,29.91,SE,131,13.0,24.0,45,0.00,,,0.00,WUHU216DAVISVP2,2013-10-22 22:08:00,
2013-10-22 17:13:00,62.7,41.0,29.91,SE,127,18.0,24.0,45,0.00,,,0.00,WUHU216DAVISVP2,2013-10-22 22:13:00,
2013-10-22 17:18:00,62.5,41.4,29.91,SE,127,10.0,24.0,46,0.00,,,0.00,WUHU216DAVISVP2,2013-10-22 22:18:00,
2013-10-22 17:23:00,62.0,41.5,29.91,SE,127,21.0,24.0,47,0.00,,,0.00,WUHU216DAVISVP2,2013-10-22 22:23:00,
2013-10-22 17:28:00,61.9,41.4,29.91,SE,141,12.0,24.0,47,0.00,,,0.00,WUHU216DAVISVP2,2013-10-22 22:28:00,
2013-10-22 17:33:00,61.8,41.8,29.92,ESE,114,7.0,23.0,48,0.00,,,0.00,WUHU216DAVISVP2,2013-10-22 22:33:00,
2013-10-22 17:38:00,61.6,41.7,29.92,SE,133,8.0,23.0,48,0.00,,,0.00,WUHU216DAVISVP2,2013-10-22 22:38:00,
2013-10-22 17:43:00,61.7,42.3,29.92,ESE,112,6.0,23.0,49,0.00,,,0.00,WUHU216DAVISVP2,2013-10-22 22:43:00,
2013-10-22 17:48:00,61.8,42.5,29.92,SE,131,9.0,18.0,49,0.00,,,0.00,WUHU216DAVISVP2,2013-10-22 22:48:00,
2013-10-22 17:53:00,61.9,42.5,29.92,SE,131,4.0,14.0,49,0.00,,,0.00,WUHU216DAVISVP2,2013-10-22 22:53:00,
2013-10-22 17:58:00,61.9,43.1,29.92,SE,137,5.0,14.0,50,0.00,,,0.00,WUHU216DAVISVP2,2013-10-22 22:58:00,
2013-10-22 18:03:00,62.0,43.1,29.92,SE,127,5.0,11.0,50,0.00,,,0.00,WUHU216DAVISVP2,2013-10-22 23:03:00,
2013-10-22 18:08:00,61.8,43.0,29.92,SE,133,5.0,10.0,50,0.00,,,0.00,WUHU216DAVISVP2,2013-10-22 23:08:00,
2013-10-22 18:13:00,61.6,42.3,29.92,SE,132,8.0,13.0,49,0.00,,,0.00,WUHU216DAVISVP2,2013-10-22 23:13:00,
2013-10-22 18:18:00,61.3,41.4,29.93,SE,143,7.0,13.0,48,0.00,,,0.00,WUHU216DAVISVP2,2013-10-22 23:18:00,
2013-10-22 18:23:00,61.0,41.2,29.93,SE,127,4.0,14.0,48,0.00,,,0.00,WUHU216DAVISVP2,2013-10-22 23:23:00,
2013-10-22 18:28:00,60.6,41.3,29.93,SE,132,5.0,14.0,49,0.00,,,0.00,WUHU216DAVISVP2,2013-10-22 23:28:00,
2013-10-22 18:33:00,60.3,41.5,29.93,ESE,121,2.0,14.0,50,0.00,,,0.00,WUHU216DAVISVP2,2013-10-22 23:33:00,
2013-10-22 18:38:00,59.9,41.2,29.93,SSE,160,4.0,14.0,50,0.00,,,0.00,WUHU216DAVISVP2,2013-10-22 23:38:00,
2013-10-22 18:43:00,59.7,41.0,29.94,SE,146,3.0,14.0,50,0.00,,,0.00,WUHU216DAVISVP2,2013-10-22 23:43:00,
2013-10-22 18:48:00,59.4,40.8,29.94,SE,139,3.0,14.0,50,0.00,,,0.00,WUHU216DAVISVP2,2013-10-22 23:48:00,
2013-10-22 18:53:00,59.2,41.1,29.94,SSE,148,4.0,14.0,51,0.00,,,0.00,WUHU216DAVISVP2,2013-10-22 23:53:00,
2013-10-22 18:58:00,59.0,40.9,29.94,South,183,10.0,16.0,51,0.00,,,0.00,WUHU216DAVISVP2,2013-10-22 23:58:00,
2013-10-22 19:03:00,58.8,40.8,29.95,SE,141,2.0,16.0,51,0.00,,,0.00,WUHU216DAVISVP2,2013-10-23 00:03:00,
2013-10-22 19:08:00,58.6,41.6,29.95,South,185,2.0,16.0,53,0.00,,,0.00,WUHU216DAVISVP2,2013-10-23 00:08:00,
2013-10-22 19:13:00,58.3,41.3,29.95,SSE,161,9.0,16.0,53,0.00,,,0.00,WUHU216DAVISVP2,2013-10-23 00:13:00,
2013-10-22 19:17:00,57.8,41.3,29.96,SSE,148,13.0,13.0,54,0.00,,,0.00,WUHU216DAVISVP2,2013-10-23 00:17:00,
2013-10-22 19:22:00,57.5,41.5,29.96,South,177,5.0,13.0,55,0.00,,,0.00,WUHU216DAVISVP2,2013-10-23 00:22:00,
2013-10-22 19:27:00,57.2,41.7,29.96,SE,143,2.0,13.0,56,0.00,,,0.00,WUHU216DAVISVP2,2013-10-23 00:27:00,
2013-10-22 19:32:00,56.9,41.9,29.97,SE,134,4.0,13.0,57,0.00,,,0.00,WUHU216DAVISVP2,2013-10-23 00:32:00,
2013-10-22 19:37:00,56.7,41.7,29.97,SE,141,7.0,16.0,57,0.00,,,0.00,WUHU216DAVISVP2,2013-10-23 00:37:00,
2013-10-22 19:42:00,56.5,41.6,29.97,SSE,155,4.0,16.0,57,0.00,,,0.00,WUHU216DAVISVP2,2013-10-23 00:42:00,
2013-10-22 19:47:00,56.4,41.9,29.98,SSE,164,3.0,16.0,58,0.00,,,0.00,WUHU216DAVISVP2,2013-10-23 00:47:00,
2013-10-22 19:52:00,56.3,41.8,29.98,SSE,160,2.0,12.0,58,0.00,,,0.00,WUHU216DAVISVP2,2013-10-23 00:52:00,
2013-10-22 19:57:00,55.9,41.5,29.98,ESE,123,7.0,11.0,58,0.00,,,0.00,WUHU216DAVISVP2,2013-10-23 00:57:00,
2013-10-22 20:03:00,55.7,41.3,29.98,SSE,168,5.0,11.0,58,0.00,,,0.00,WUHU216DAVISVP2,2013-10-23 01:03:00,
2013-10-22 20:08:00,55.6,41.6,29.98,SSE,154,3.0,12.0,59,0.00,,,0.00,WUHU216DAVISVP2,2013-10-23 01:08:00,
2013-10-22 20:13:00,55.3,41.4,29.99,South,170,5.0,12.0,59,0.00,,,0.00,WUHU216DAVISVP2,2013-10-23 01:13:00,
2013-10-22 20:18:00,55.0,41.5,29.99,South,173,2.0,12.0,60,0.00,,,0.00,WUHU216DAVISVP2,2013-10-23 01:18:00,
2013-10-22 20:23:00,54.7,41.2,29.99,South,175,7.0,13.0,60,0.00,,,0.00,WUHU216DAVISVP2,2013-10-23 01:23:00,
2013-10-22 20:28:00,54.5,41.0,29.99,South,179,6.0,13.0,60,0.00,,,0.00,WUHU216DAVISVP2,2013-10-23 01:28:00,
2013-10-22 20:32:00,54.2,40.7,29.99,SSW,193,12.0,13.0,60,0.00,,,0.00,WUHU216DAVISVP2,2013-10-23 01:32:00,
2013-10-22 20:37:00,53.9,40.4,30.00,SE,143,4.0,13.0,60,0.00,,,0.00,WUHU216DAVISVP2,2013-10-23 01:37:00,
2013-10-22 20:42:00,53.7,40.6,30.00,SSE,166,6.0,13.0,61,0.00,,,0.00,WUHU216DAVISVP2,2013-10-23 01:42:00,
2013-10-22 20:47:00,53.4,40.4,30.00,South,191,5.0,13.0,61,0.00,,,0.00,WUHU216DAVISVP2,2013-10-23 01:47:00,
2013-10-22 20:53:00,53.0,40.4,30.00,SSE,154,5.0,13.0,62,0.00,,,0.00,WUHU216DAVISVP2,2013-10-23 01:53:00,
2013-10-22 20:57:00,52.7,40.5,30.00,South,187,3.0,12.0,63,0.00,,,0.00,WUHU216DAVISVP2,2013-10-23 01:57:00,
2013-10-22 21:03:00,52.3,40.2,30.00,South,191,3.0,10.0,63,0.00,,,0.00,WUHU216DAVISVP2,2013-10-23 02:03:00,
2013-10-22 21:07:00,52.0,40.3,30.00,South,185,3.0,12.0,64,0.00,,,0.00,WUHU216DAVISVP2,2013-10-23 02:07:00,
2013-10-22 21:12:00,51.7,40.0,30.00,SSW,197,0.0,12.0,64,0.00,,,0.00,WUHU216DAVISVP2,2013-10-23 02:12:00,
2013-10-22 21:17:00,51.4,39.7,30.01,South,191,1.0,12.0,64,0.00,,,0.00,WUHU216DAVISVP2,2013-10-23 02:17:00,
2013-10-22 21:22:00,51.1,39.9,30.01,South,189,3.0,12.0,65,0.00,,,0.00,WUHU216DAVISVP2,2013-10-23 02:22:00,
2013-10-22 21:27:00,50.9,39.7,30.01,South,186,1.0,9.0,65,0.00,,,0.00,WUHU216DAVISVP2,2013-10-23 02:27:00,
2013-10-22 21:32:00,50.7,39.8,30.02,South,175,0.0,8.0,66,0.00,,,0.00,WUHU216DAVISVP2,2013-10-23 02:32:00,
2013-10-22 21:38:00,50.3,39.5,30.02,South,170,0.0,8.0,66,0.00,,,0.00,WUHU216DAVISVP2,2013-10-23 02:38:00,
2013-10-22 21:43:00,50.1,39.3,30.02,South,177,1.0,7.0,66,0.00,,,0.00,WUHU216DAVISVP2,2013-10-23 02:43:00,
2013-10-22 21:48:00,49.9,39.5,30.02,South,179,0.0,7.0,67,0.00,,,0.00,WUHU216DAVISVP2,2013-10-23 02:48:00,
2013-10-22 21:53:00,49.7,39.3,30.02,South,179,0.0,5.0,67,0.00,,,0.00,WUHU216DAVISVP2,2013-10-23 02:53:00,
2013-10-22 21:58:00,49.3,39.0,30.02,South,187,4.0,6.0,67,0.00,,,0.00,WUHU216DAVISVP2,2013-10-23 02:58:00,
2013-10-22 22:03:00,49.2,39.2,30.02,South,186,4.0,6.0,68,0.00,,,0.00,WUHU216DAVISVP2,2013-10-23 03:03:00,
2013-10-22 22:07:00,49.0,39.0,30.02,South,189,0.0,6.0,68,0.00,,,0.00,WUHU216DAVISVP2,2013-10-23 03:07:00,
2013-10-22 22:13:00,48.8,38.8,30.02,South,189,0.0,6.0,68,0.00,,,0.00,WUHU216DAVISVP2,2013-10-23 03:13:00,
2013-10-22 22:18:00,48.6,38.6,30.02,South,189,0.0,6.0,68,0.00,,,0.00,WUHU216DAVISVP2,2013-10-23 03:18:00,
2013-10-22 22:23:00,48.3,38.7,30.02,South,189,0.0,6.0,69,0.00,,,0.00,WUHU216DAVISVP2,2013-10-23 03:23:00,
2013-10-22 22:28:00,48.2,38.6,30.03,South,185,1.0,7.0,69,0.00,,,0.00,WUHU216DAVISVP2,2013-10-23 03:28:00,
2013-10-22 22:33:00,48.0,38.4,30.03,South,172,4.0,7.0,69,0.00,,,0.00,WUHU216DAVISVP2,2013-10-23 03:33:00,
2013-10-22 22:38:00,47.9,38.3,30.03,South,181,1.0,7.0,69,0.00,,,0.00,WUHU216DAVISVP2,2013-10-23 03:38:00,
2013-10-22 22:43:00,47.8,38.2,30.03,South,177,1.0,9.0,69,0.00,,,0.00,WUHU216DAVISVP2,2013-10-23 03:43:00,
2013-10-22 22:48:00,47.7,38.2,30.04,South,181,1.0,9.0,69,0.00,,,0.00,WUHU216DAVISVP2,2013-10-23 03:48:00,
2013-10-22 22:53:00,47.5,38.0,30.04,South,183,2.0,9.0,69,0.00,,,0.00,WUHU216DAVISVP2,2013-10-23 03:53:00,
2013-10-22 22:58:00,47.4,37.8,30.04,SSE,155,3.0,9.0,69,0.00,,,0.00,WUHU216DAVISVP2,2013-10-23 03:58:00,
2013-10-22 23:01:00,47.3,37.7,30.04,South,178,2.0,7.0,69,0.00,,,0.00,WUHU216DAVISVP2,2013-10-23 04:01:00,
2013-10-22 23:02:00,47.2,37.6,30.04,SSE,150,4.0,7.0,69,0.00,,,0.00,WUHU216DAVISVP2,2013-10-23 04:02:00,
2013-10-22 23:07:00,46.9,37.3,30.04,South,180,0.0,7.0,69,0.00,,,0.00,WUHU216DAVISVP2,2013-10-23 04:07:00,
2013-10-22 23:12:00,46.7,37.1,30.03,South,177,0.0,7.0,69,0.00,,,0.00,WUHU216DAVISVP2,2013-10-23 04:12:00,
2013-10-22 23:17:00,46.3,36.8,30.03,South,173,1.0,7.0,69,0.00,,,0.00,WUHU216DAVISVP2,2013-10-23 04:17:00,
2013-10-22 23:22:00,46.1,36.6,30.04,South,184,3.0,6.0,69,0.00,,,0.00,WUHU216DAVISVP2,2013-10-23 04:22:00,
2013-10-22 23:27:00,45.9,36.4,30.04,South,184,0.0,6.0,69,0.00,,,0.00,WUHU216DAVISVP2,2013-10-23 04:27:00,
2013-10-22 23:32:00,45.7,36.2,30.04,South,184,0.0,6.0,69,0.00,,,0.00,WUHU216DAVISVP2,2013-10-23 04:32:00,
2013-10-22 23:37:00,45.6,36.1,30.04,SSE,152,1.0,5.0,69,0.00,,,0.00,WUHU216DAVISVP2,2013-10-23 04:37:00,
2013-10-22 23:42:00,45.4,35.9,30.05,SSE,162,1.0,5.0,69,0.00,,,0.00,WUHU216DAVISVP2,2013-10-23 04:42:00,
2013-10-22 23:47:00,45.3,36.2,30.05,South,169,3.0,5.0,70,0.00,,,0.00,WUHU216DAVISVP2,2013-10-23 04:47:00,
2013-10-22 23:52:00,45.2,36.0,30.05,South,169,0.0,5.0,70,0.00,,,0.00,WUHU216DAVISVP2,2013-10-23 04:52:00,
2013-10-22 23:57:00,45.0,36.2,30.05,South,169,0.0,5.0,71,0.00,,,0.00,WUHU216DAVISVP2,2013-10-23 04:57:00,